Time;durP1;ratioP1;P1;durP2;ratioP2;P2;SDS_P1;SDS_P2;PMS_P1;PMS_P2;Temp;Humidity;BMP_temperature;BMP_pressure;BME280_temperature;BME280_humidity;BME280_pressure;Samples;Min_cycle;Max_cycle;Signal;HPM_P1;HPM_P2
2021/12/22 00:00:19;;;;;;;;;;;;;;;13.61;56.62;102307.78;1047047;28;732;-55
2021/12/22 00:01:10;;;;;;;;;;;;;;;13.62;55.81;102309.50;1045206;28;715;-55
2021/12/22 00:02:00;;;;;;;;;;;;;;;13.61;56.22;102302.44;1045337;28;678;-54
2021/12/22 00:02:50;;;;;;;;;;;;;;;13.61;56.11;102308.66;1045074;28;964;-51
2021/12/22 00:03:46;;;;;;;;;;;;;;;13.59;57.17;102301.66;1045240;28;630;-53
2021/12/22 00:04:43;;;;;;;;;;;;;;;13.60;56.10;102303.38;1045942;28;1903;-53
2021/12/22 00:05:42;;;;;;;;;;;;;;;13.59;56.17;102302.53;1045896;28;629;-54
2021/12/22 00:06:34;;;;;;;;;;;;;;;13.59;56.64;102304.34;1041687;28;649;-55
2021/12/22 00:07:25;;;;;;;;;;;;;;;13.58;56.06;102305.28;1041751;28;776;-56
2021/12/22 00:08:17;;;;;;;;;;;;;;;13.58;55.68;102305.28;1042926;28;846;-55
2021/12/22 00:09:08;;;;;;;;;;;;;;;13.58;55.82;102299.91;1041656;28;825;-55
2021/12/22 00:09:59;;;;;;;;;;;;;;;13.57;56.39;102308.91;1042071;28;2101;-55
2021/12/22 00:10:49;;;;;;;;;;;;;;;13.57;55.87;102303.53;1041258;28;626;-55
2021/12/22 00:11:40;;;;;;;;;;;;;;;13.57;56.01;102303.53;1043358;28;758;-57
2021/12/22 00:12:30;;;;;;;;;;;;;;;13.55;55.55;102296.47;1043003;28;1092;-55
2021/12/22 00:13:21;;;;;;;;;;;;;;;13.55;56.04;102307.16;1043877;28;1863;-55
2021/12/22 00:14:11;;;;;;;;;;;;;;;13.55;55.67;102306.31;1046370;28;918;-55
2021/12/22 00:15:02;;;;;;;;;;;;;;;13.53;55.66;102309.06;1046988;28;809;-54
2021/12/22 00:15:52;;;;;;;;;;;;;;;13.54;56.41;102305.44;1046282;28;1909;-54
2021/12/22 00:16:42;;;;;;;;;;;;;;;13.55;55.50;102312.53;1046308;28;649;-53
2021/12/22 00:17:33;;;;;;;;;;;;;;;13.54;55.74;102312.59;1046384;28;856;-57
2021/12/22 00:18:23;;;;;;;;;;;;;;;13.53;56.32;102306.38;1046374;28;1902;-56
2021/12/22 00:19:14;;;;;;;;;;;;;;;13.52;56.13;102312.69;1046375;28;776;-58
2021/12/22 00:20:04;;;;;;;;;;;;;;;13.53;55.90;102309.06;1046217;28;1857;-55
2021/12/22 00:20:54;;;;;;;;;;;;;;;13.52;56.40;102299.28;1046436;28;716;-55
2021/12/22 00:21:45;;;;;;;;;;;;;;;13.52;56.16;102301.09;1044964;28;1956;-55
2021/12/22 00:22:35;;;;;;;;;;;;;;;13.52;55.78;102306.47;1046324;28;634;-53
2021/12/22 00:23:26;;;;;;;;;;;;;;;13.52;55.47;102303.78;1046041;28;1787;-53
2021/12/22 00:24:16;;;;;;;;;;;;;;;13.51;55.89;102300.25;1041628;28;1370;-53
2021/12/22 00:25:06;;;;;;;;;;;;;;;13.52;55.26;102295.75;1042835;28;657;-52
2021/12/22 00:25:57;;;;;;;;;;;;;;;13.52;56.34;102296.63;1042697;28;802;-54
2021/12/22 00:26:47;;;;;;;;;;;;;;;13.49;56.20;102291.41;1042277;28;578;-51
2021/12/22 00:27:38;;;;;;;;;;;;;;;13.49;55.75;102299.47;1042190;28;821;-51
2021/12/22 00:28:28;;;;;;;;;;;;;;;13.49;55.82;102296.78;1042154;28;783;-54
2021/12/22 00:29:19;;;;;;;;;;;;;;;13.49;55.97;102294.09;1045511;28;2040;-54
2021/12/22 00:30:10;;;;;;;;;;;;;;;13.49;56.58;102296.78;1045282;28;957;-49
2021/12/22 00:31:00;;;;;;;;;;;;;;;13.56;56.00;102291.97;1045253;28;625;-49
2021/12/22 00:32:08;;;;;;;;;;;;;;;13.63;57.21;102292.47;1044848;28;1934;-52
2021/12/22 00:33:04;;;;;;;;;;;;;;;13.69;56.61;102297.50;1044879;28;1736;-49
2021/12/22 00:33:57;;;;;;;;;;;;;;;13.70;57.53;102293.88;1046169;28;2029;-52
2021/12/22 00:34:52;;;;;;;;;;;;;;;13.68;55.91;102293.09;1046216;28;784;-53
2021/12/22 00:35:45;;;;;;;;;;;;;;;13.65;55.99;102296.81;1045702;28;1760;-50
2021/12/22 00:36:35;;;;;;;;;;;;;;;13.61;56.77;102299.75;1045178;28;841;-50
2021/12/22 00:37:26;;;;;;;;;;;;;;;13.59;55.70;102302.53;1042292;28;1850;-54
2021/12/22 00:38:22;;;;;;;;;;;;;;;13.57;56.68;102301.72;1042782;28;1993;-52
2021/12/22 00:39:13;;;;;;;;;;;;;;;13.55;55.79;102301.81;1044929;28;1435;-53
2021/12/22 00:40:03;;;;;;;;;;;;;;;13.54;56.15;102301.91;1041705;28;737;-54
2021/12/22 00:40:54;;;;;;;;;;;;;;;13.52;56.26;102306.47;1042624;28;1848;-54
2021/12/22 00:41:44;;;;;;;;;;;;;;;13.51;56.06;102299.38;1046821;28;629;-53
2021/12/22 00:42:35;;;;;;;;;;;;;;;13.49;55.89;102302.13;1046879;28;932;-50
2021/12/22 00:43:25;;;;;;;;;;;;;;;13.49;55.83;102295.91;1042217;28;700;-54
2021/12/22 00:44:16;;;;;;;;;;;;;;;13.48;56.20;102299.53;1042760;28;827;-50
2021/12/22 00:45:06;;;;;;;;;;;;;;;13.47;55.85;102296.00;1045357;28;1792;-55
2021/12/22 00:45:56;;;;;;;;;;;;;;;13.48;55.96;102292.38;1046331;28;695;-54
2021/12/22 00:46:47;;;;;;;;;;;;;;;13.48;55.58;102294.19;1042114;28;1003;-51
2021/12/22 00:47:37;;;;;;;;;;;;;;;13.47;55.85;102293.31;1042656;28;621;-55
2021/12/22 00:48:28;;;;;;;;;;;;;;;13.48;56.57;102288.81;1042716;28;711;-50
2021/12/22 00:49:18;;;;;;;;;;;;;;;13.46;56.29;102299.63;1042629;28;1931;-57
2021/12/22 00:50:09;;;;;;;;;;;;;;;13.46;55.67;102294.25;1046227;28;806;-52
2021/12/22 00:50:59;;;;;;;;;;;;;;;13.46;56.28;102296.94;1045520;28;1784;-53
2021/12/22 00:51:49;;;;;;;;;;;;;;;13.46;55.64;102290.72;1046162;28;640;-54
2021/12/22 00:52:40;;;;;;;;;;;;;;;13.45;56.15;102292.53;1046189;28;1803;-52
2021/12/22 00:53:30;;;;;;;;;;;;;;;13.45;56.51;102297.00;1042052;28;705;-53
2021/12/22 00:54:21;;;;;;;;;;;;;;;13.45;55.46;102288.97;1042045;28;992;-51
2021/12/22 00:55:16;;;;;;;;;;;;;;;13.44;55.37;102288.13;1042656;28;843;-51
2021/12/22 00:56:07;;;;;;;;;;;;;;;13.44;55.53;102289.94;1042063;28;904;-51
2021/12/22 00:57:04;;;;;;;;;;;;;;;13.43;55.61;102281.06;1042623;28;881;-49
2021/12/22 00:57:55;;;;;;;;;;;;;;;13.43;56.08;102286.41;1043711;28;1739;-49
2021/12/22 00:58:45;;;;;;;;;;;;;;;13.42;55.97;102281.16;1045700;28;765;-54
2021/12/22 00:59:35;;;;;;;;;;;;;;;13.42;56.61;102295.41;1046544;28;1821;-52
2021/12/22 01:00:26;;;;;;;;;;;;;;;13.40;56.86;102286.56;1041966;28;1803;-55
2021/12/22 01:01:16;;;;;;;;;;;;;;;13.41;55.91;102288.31;1045092;28;726;-49
2021/12/22 01:02:07;;;;;;;;;;;;;;;13.40;56.04;102286.56;1045028;28;622;-50
2021/12/22 01:02:57;;;;;;;;;;;;;;;13.40;56.12;102291.94;1044959;28;1788;-53
2021/12/22 01:03:48;;;;;;;;;;;;;;;13.40;55.49;102291.94;1046249;28;706;-53
2021/12/22 01:04:38;;;;;;;;;;;;;;;13.39;55.62;102283.97;1047420;28;710;-49
2021/12/22 01:05:28;;;;;;;;;;;;;;;13.39;55.69;102295.56;1045902;28;1559;-48
2021/12/22 01:06:19;;;;;;;;;;;;;;;13.40;55.80;102296.41;1041349;28;835;-53
2021/12/22 01:07:09;;;;;;;;;;;;;;;13.40;55.64;102293.75;1042216;28;1591;-54
2021/12/22 01:08:00;;;;;;;;;;;;;;;13.39;55.69;102295.56;1042424;28;650;-49
2021/12/22 01:08:50;;;;;;;;;;;;;;;13.39;56.30;102300.91;1041990;28;782;-50
2021/12/22 01:09:41;;;;;;;;;;;;;;;13.37;55.73;102293.91;1041947;28;956;-49
2021/12/22 01:10:31;;;;;;;;;;;;;;;13.38;55.50;102287.59;1044505;28;1936;-52
2021/12/22 01:11:22;;;;;;;;;;;;;;;13.37;56.57;102289.41;1046130;28;791;-50
2021/12/22 01:12:12;;;;;;;;;;;;;;;13.37;55.97;102293.91;1041146;28;1818;-48
2021/12/22 01:13:03;;;;;;;;;;;;;;;13.36;55.37;102290.34;1041510;28;1703;-51
2021/12/22 01:13:53;;;;;;;;;;;;;;;13.36;55.57;102293.03;1046544;28;819;-54
2021/12/22 01:14:44;;;;;;;;;;;;;;;13.36;56.21;102293.03;1045604;28;1879;-55
2021/12/22 01:15:34;;;;;;;;;;;;;;;13.36;55.13;102293.03;1046380;28;2030;-54
2021/12/22 01:16:24;;;;;;;;;;;;;;;13.36;56.23;102295.72;1045828;28;720;-53
2021/12/22 01:17:16;;;;;;;;;;;;;;;13.36;55.89;102295.72;1044975;28;731;-54
2021/12/22 01:18:12;;;;;;;;;;;;;;;13.35;55.35;102291.31;1045881;28;1957;-55
2021/12/22 01:19:07;;;;;;;;;;;;;;;13.34;56.37;102292.25;1046738;28;811;-49
2021/12/22 01:20:04;;;;;;;;;;;;;;;13.33;56.18;102290.53;1045036;28;930;-52
2021/12/22 01:22:03;;;;;;;;;;;;;;;13.34;56.20;102289.56;1045899;28;2190;-52
2021/12/22 01:23:02;;;;;;;;;;;;;;;13.32;55.84;102294.13;1044630;28;1823;-52
2021/12/22 01:24:10;;;;;;;;;;;;;;;13.33;56.49;102300.38;1042210;28;1919;-55
2021/12/22 01:25:03;;;;;;;;;;;;;;;13.32;55.93;102293.28;1046473;28;2066;-53
2021/12/22 01:25:53;;;;;;;;;;;;;;;13.32;55.04;102296.81;1046032;28;784;-51
2021/12/22 01:26:52;;;;;;;;;;;;;;;13.31;55.28;102295.09;1044930;28;700;-55
2021/12/22 01:27:43;;;;;;;;;;;;;;;13.31;55.46;102295.09;1046761;28;703;-52
2021/12/22 01:28:40;;;;;;;;;;;;;;;13.31;55.79;102295.09;1045064;28;992;-53
2021/12/22 01:29:31;;;;;;;;;;;;;;;13.31;55.93;102300.44;1042249;28;839;-55
2021/12/22 01:30:21;;;;;;;;;;;;;;;13.31;55.87;102296.91;1042691;28;782;-51
2021/12/22 01:31:15;;;;;;;;;;;;;;;13.29;55.49;102294.31;1045897;28;1697;-55
2021/12/22 01:32:08;;;;;;;;;;;;;;;13.30;55.79;102300.53;1046722;28;736;-53
2021/12/22 01:32:59;;;;;;;;;;;;;;;13.30;55.58;102290.69;1044782;28;1804;-55
2021/12/22 01:33:49;;;;;;;;;;;;;;;13.30;56.51;102288.00;1046139;28;647;-54
2021/12/22 01:34:40;;;;;;;;;;;;;;;13.29;55.49;102288.94;1045844;28;1902;-55
2021/12/22 01:35:30;;;;;;;;;;;;;;;13.28;55.89;102289.88;1044788;28;1938;-52
2021/12/22 01:36:21;;;;;;;;;;;;;;;13.27;56.01;102285.47;1045105;28;739;-56
2021/12/22 01:37:11;;;;;;;;;;;;;;;13.29;55.26;102291.63;1044919;28;737;-55
2021/12/22 01:38:01;;;;;;;;;;;;;;;13.28;55.86;102297.91;1044765;28;1979;-56
2021/12/22 01:38:52;;;;;;;;;;;;;;;13.28;56.13;102295.25;1046032;28;889;-56
2021/12/22 01:39:42;;;;;;;;;;;;;;;13.28;56.51;102297.06;1046235;28;700;-55
2021/12/22 01:40:33;;;;;;;;;;;;;;;13.26;55.16;102294.47;1046043;28;956;-54
2021/12/22 01:41:23;;;;;;;;;;;;;;;13.27;55.70;102300.69;1046050;28;705;-56
2021/12/22 01:42:13;;;;;;;;;;;;;;;13.26;55.75;102302.50;1045907;28;1978;-55
2021/12/22 01:43:05;;;;;;;;;;;;;;;13.25;55.21;102287.41;1045642;28;1817;-53
2021/12/22 01:43:56;;;;;;;;;;;;;;;13.25;56.09;102287.41;1046025;28;719;-52
2021/12/22 01:44:59;;;;;;;;;;;;;;;13.25;55.51;102298.09;1047076;28;1571;-54
2021/12/22 01:49:21;;;;;;;;;;;;;;;13.24;55.55;102288.34;1045883;28;1005;-53
2021/12/22 01:50:12;;;;;;;;;;;;;;;13.24;56.10;102290.16;1044223;28;713;-50
2021/12/22 01:51:02;;;;;;;;;;;;;;;13.20;55.69;102287.63;1046258;28;1688;-49
2021/12/22 01:51:54;;;;;;;;;;;;;;;13.22;55.99;102290.22;1045967;28;649;-50
2021/12/22 01:52:44;;;;;;;;;;;;;;;13.22;55.72;102294.72;1042422;28;674;-52
2021/12/22 01:53:35;;;;;;;;;;;;;;;13.20;56.40;102295.66;1041592;28;900;-51
2021/12/22 01:54:27;;;;;;;;;;;;;;;13.20;55.35;102293.00;1042138;28;748;-51
2021/12/22 01:55:24;;;;;;;;;;;;;;;13.21;55.40;102291.19;1041895;28;751;-51
2021/12/22 01:56:22;;;;;;;;;;;;;;;13.20;55.30;102284.09;1041821;28;1916;-53
2021/12/22 01:57:13;;;;;;;;;;;;;;;13.20;55.92;102286.78;1041230;28;805;-52
2021/12/22 01:58:03;;;;;;;;;;;;;;;13.22;55.98;102286.69;1042459;28;703;-50
2021/12/22 01:58:53;;;;;;;;;;;;;;;13.21;55.76;102291.19;1043468;28;1842;-52
2021/12/22 01:59:44;;;;;;;;;;;;;;;13.20;56.62;102282.28;1041538;28;798;-53
2021/12/22 02:00:34;;;;;;;;;;;;;;;13.20;55.19;102284.09;1041859;28;1996;-51
2021/12/22 02:01:25;;;;;;;;;;;;;;;13.20;55.85;102292.13;1046566;28;772;-53
2021/12/22 02:02:15;;;;;;;;;;;;;;;13.19;55.71;102288.59;1044599;28;1830;-51
2021/12/22 02:03:06;;;;;;;;;;;;;;;13.19;55.54;102291.25;1046016;28;730;-55
2021/12/22 02:03:56;;;;;;;;;;;;;;;13.19;55.80;102291.25;1046011;28;950;-50
2021/12/22 02:04:46;;;;;;;;;;;;;;;13.18;56.19;102291.34;1045843;28;790;-51
2021/12/22 02:05:37;;;;;;;;;;;;;;;13.17;55.17;102290.47;1045789;28;1922;-50
2021/12/22 02:06:33;;;;;;;;;;;;;;;13.18;55.74;102294.00;1049578;28;1451;-50
2021/12/22 02:07:23;;;;;;;;;;;;;;;13.17;55.97;102290.47;1049413;28;763;-54
2021/12/22 02:08:13;;;;;;;;;;;;;;;13.17;56.17;102278.91;1049264;28;953;-54
2021/12/22 02:09:04;;;;;;;;;;;;;;;13.18;55.81;102292.19;1049459;28;816;-54
2021/12/22 02:10:54;;;;;;;;;;;;;;;13.17;55.46;102286.94;1049333;28;1882;-53
2021/12/22 02:11:44;;;;;;;;;;;;;;;13.17;55.43;102290.47;1049474;28;630;-50
2021/12/22 02:12:40;;;;;;;;;;;;;;;13.17;55.86;102292.28;1048935;28;1767;-52
2021/12/22 02:13:35;;;;;;;;;;;;;;;13.16;55.23;102287.88;1049992;28;770;-47
2021/12/22 02:14:25;;;;;;;;;;;;;;;13.15;56.35;102280.78;1049180;28;788;-51
2021/12/22 02:15:16;;;;;;;;;;;;;;;13.15;55.07;102280.78;1049480;28;800;-51
2021/12/22 02:16:08;;;;;;;;;;;;;;;13.15;55.17;102281.66;1046207;28;2050;-56
2021/12/22 02:16:59;;;;;;;;;;;;;;;13.15;55.38;102280.78;1045995;28;672;-53
2021/12/22 02:17:50;;;;;;;;;;;;;;;13.14;55.83;102277.22;1048620;28;1748;-54
2021/12/22 02:18:40;;;;;;;;;;;;;;;13.14;55.97;102279.03;1049542;28;792;-51
2021/12/22 02:19:31;;;;;;;;;;;;;;;13.13;55.49;102278.16;1049305;28;691;-55
2021/12/22 02:20:21;;;;;;;;;;;;;;;13.14;55.94;102279.03;1049457;28;873;-53
2021/12/22 02:21:12;;;;;;;;;;;;;;;13.13;55.88;102274.63;1048875;28;1600;-53
2021/12/22 02:22:07;;;;;;;;;;;;;;;13.13;55.75;102266.59;1049897;28;671;-52
2021/12/22 02:22:58;;;;;;;;;;;;;;;13.14;55.20;102276.34;1046839;28;1832;-50
2021/12/22 02:23:49;;;;;;;;;;;;;;;13.13;55.99;102269.25;1049349;28;613;-50
2021/12/22 02:24:40;;;;;;;;;;;;;;;13.13;55.18;102282.63;1049248;28;926;-52
2021/12/22 02:25:37;;;;;;;;;;;;;;;13.12;55.12;102276.41;1049279;28;624;-52
2021/12/22 02:26:43;;;;;;;;;;;;;;;13.12;55.25;102279.09;1049316;28;1993;-51
2021/12/22 02:27:43;;;;;;;;;;;;;;;13.11;55.71;102281.84;1049881;28;704;-48
2021/12/22 02:28:36;;;;;;;;;;;;;;;13.11;55.03;102282.72;1049438;28;710;-54
2021/12/22 02:29:35;;;;;;;;;;;;;;;13.12;55.49;102279.09;1050157;28;888;-53
2021/12/22 02:30:28;;;;;;;;;;;;;;;13.12;55.99;102283.59;1049166;28;745;-53
2021/12/22 02:31:20;;;;;;;;;;;;;;;13.12;55.29;102280.91;1045862;28;884;-55
2021/12/22 02:32:20;;;;;;;;;;;;;;;13.11;56.17;102279.19;1045732;28;726;-54
2021/12/22 02:34:20;;;;;;;;;;;;;;;13.10;55.04;102277.44;1045183;28;821;-55
2021/12/22 02:35:10;;;;;;;;;;;;;;;13.08;56.04;102279.34;1045596;28;803;-54
2021/12/22 02:36:59;;;;;;;;;;;;;;;13.09;55.14;102286.41;1045605;28;692;-52
2021/12/22 02:37:49;;;;;;;;;;;;;;;13.09;55.50;102281.06;1045644;28;861;-53
2021/12/22 02:38:40;;;;;;;;;;;;;;;13.08;56.25;102282.00;1048435;28;649;-55
2021/12/22 02:39:30;;;;;;;;;;;;;;;13.08;55.13;102292.72;1049518;28;740;-55
2021/12/22 02:40:25;;;;;;;;;;;;;;;13.07;55.32;102278.50;1045864;28;806;-55
2021/12/22 02:41:16;;;;;;;;;;;;;;;13.06;56.04;102279.44;1045680;28;834;-55
2021/12/22 02:42:10;;;;;;;;;;;;;;;13.07;55.94;102288.34;1048588;28;795;-55
2021/12/22 02:43:05;;;;;;;;;;;;;;;13.06;55.11;102279.44;1056048;28;1785;-55
2021/12/22 02:43:56;;;;;;;;;;;;;;;13.05;56.29;102284.88;1057557;28;827;-55
2021/12/22 02:44:47;;;;;;;;;;;;;;;13.04;55.90;102284.00;1058225;28;644;-55
2021/12/22 02:45:37;;;;;;;;;;;;;;;13.04;55.91;102280.47;1057333;27;1905;-54
2021/12/22 02:46:28;;;;;;;;;;;;;;;13.04;55.49;102280.47;1049143;28;1890;-54
2021/12/22 02:47:19;;;;;;;;;;;;;;;13.04;56.27;102280.47;1047660;28;802;-55
2021/12/22 02:48:09;;;;;;;;;;;;;;;13.04;55.38;102285.81;1048454;28;759;-55
2021/12/22 02:48:59;;;;;;;;;;;;;;;13.04;55.24;102272.44;1053276;28;633;-55
2021/12/22 02:49:50;;;;;;;;;;;;;;;13.05;55.40;102274.16;1058437;28;1609;-53
2021/12/22 02:50:40;;;;;;;;;;;;;;;13.03;55.45;102278.72;1060468;28;1988;-53
2021/12/22 02:51:31;;;;;;;;;;;;;;;13.04;55.52;102285.81;1056861;28;1709;-54
2021/12/22 02:52:22;;;;;;;;;;;;;;;13.03;56.39;102286.75;1057170;28;760;-54
2021/12/22 02:53:14;;;;;;;;;;;;;;;13.01;56.48;102277.94;1056984;28;746;-52
2021/12/22 02:54:18;;;;;;;;;;;;;;;13.00;55.92;102293.13;1056997;28;838;-54
2021/12/22 02:55:08;;;;;;;;;;;;;;;13.01;55.74;102286.84;1057159;28;750;-52
2021/12/22 02:57:48;;;;;;;;;;;;;;;13.02;55.83;102285.03;1057137;28;621;-54
2021/12/22 02:58:56;;;;;;;;;;;;;;;13.02;55.61;102295.72;1056916;28;625;-54
2021/12/22 03:00:10;;;;;;;;;;;;;;;13.00;56.16;102294.94;1052222;28;1855;-53
2021/12/22 03:03:54;;;;;;;;;;;;;;;12.99;55.95;102298.56;1057601;28;695;-54
2021/12/22 03:04:51;;;;;;;;;;;;;;;13.00;55.01;102293.13;1058134;28;836;-53
2021/12/22 03:05:42;;;;;;;;;;;;;;;13.01;55.80;102299.34;1057548;28;706;-54
2021/12/22 03:06:37;;;;;;;;;;;;;;;13.00;55.89;102298.47;1057417;28;1963;-52
2021/12/22 03:07:30;;;;;;;;;;;;;;;13.00;54.86;102292.25;1057438;28;648;-52
2021/12/22 03:08:20;;;;;;;;;;;;;;;12.99;54.71;102302.09;1053965;28;703;-51
2021/12/22 03:09:11;;;;;;;;;;;;;;;12.99;54.69;102298.56;1052752;28;718;-55
2021/12/22 03:10:01;;;;;;;;;;;;;;;12.99;54.59;102295.88;1052928;28;812;-54
2021/12/22 03:10:53;;;;;;;;;;;;;;;12.97;54.93;102290.59;1055198;28;1862;-53
2021/12/22 03:11:44;;;;;;;;;;;;;;;12.98;55.33;102304.84;1057591;28;703;-54
2021/12/22 03:12:36;;;;;;;;;;;;;;;12.97;55.38;102298.63;1057616;28;847;-52
2021/12/22 03:13:30;;;;;;;;;;;;;;;12.97;55.99;102300.44;1057566;28;764;-52
2021/12/22 03:14:20;;;;;;;;;;;;;;;12.96;55.96;102296.91;1058046;28;792;-53
2021/12/22 03:15:10;;;;;;;;;;;;;;;12.96;54.95;102296.03;1057585;28;853;-54
2021/12/22 03:16:01;;;;;;;;;;;;;;;12.96;55.63;102301.38;1057427;28;2200;-55
2021/12/22 03:16:51;;;;;;;;;;;;;;;12.97;55.09;102297.78;1057484;28;862;-54
2021/12/22 03:17:42;;;;;;;;;;;;;;;12.97;55.84;102304.00;1057154;28;726;-54
2021/12/22 03:18:33;;;;;;;;;;;;;;;12.96;54.92;102301.38;1046100;28;719;-54
2021/12/22 03:19:23;;;;;;;;;;;;;;;12.96;55.30;102302.25;1046512;28;797;-54
2021/12/22 03:20:15;;;;;;;;;;;;;;;12.95;55.05;102292.50;1050964;28;747;-54
2021/12/22 03:21:19;;;;;;;;;;;;;;;12.95;54.87;102299.66;1050088;28;1402;-53
2021/12/22 03:22:11;;;;;;;;;;;;;;;12.95;55.57;102294.31;1050398;28;617;-52
2021/12/22 03:23:01;;;;;;;;;;;;;;;12.94;55.47;102297.91;1050421;28;749;-51
2021/12/22 03:23:53;;;;;;;;;;;;;;;12.94;55.48;102293.44;1050346;28;774;-53
2021/12/22 03:24:46;;;;;;;;;;;;;;;12.94;55.26;102293.44;1050472;28;937;-52
2021/12/22 03:25:39;;;;;;;;;;;;;;;12.93;55.64;102297.06;1051004;28;2005;-54
2021/12/22 03:26:29;;;;;;;;;;;;;;;12.93;55.10;102299.72;1055155;28;1902;-53
2021/12/22 03:27:20;;;;;;;;;;;;;;;12.92;55.72;102292.66;1054603;28;741;-54
2021/12/22 03:28:10;;;;;;;;;;;;;;;12.92;54.84;102289.97;1051069;28;628;-53
2021/12/22 03:29:00;;;;;;;;;;;;;;;12.92;55.27;102292.66;1049972;28;933;-55
2021/12/22 03:29:51;;;;;;;;;;;;;;;12.92;55.44;102289.09;1051398;28;1702;-54
2021/12/22 03:30:41;;;;;;;;;;;;;;;12.89;55.88;102290.16;1054547;28;1676;-54
2021/12/22 03:31:32;;;;;;;;;;;;;;;12.89;55.15;102283.94;1054631;28;926;-51
2021/12/22 03:32:22;;;;;;;;;;;;;;;12.90;54.58;102285.69;1051367;28;813;-52
2021/12/22 03:33:12;;;;;;;;;;;;;;;12.90;55.39;102293.69;1050250;28;821;-52
2021/12/22 03:34:03;;;;;;;;;;;;;;;12.90;55.79;102291.03;1054499;28;701;-50
2021/12/22 03:34:53;;;;;;;;;;;;;;;12.88;55.84;102284.88;1054443;28;787;-52
2021/12/22 03:35:44;;;;;;;;;;;;;;;12.89;55.99;102283.94;1054382;28;1964;-53
2021/12/22 03:36:34;;;;;;;;;;;;;;;12.88;55.88;102285.75;1054613;28;680;-53
2021/12/22 03:37:25;;;;;;;;;;;;;;;12.89;55.39;102283.94;1054576;28;793;-49
2021/12/22 03:38:15;;;;;;;;;;;;;;;12.88;55.10;102283.06;1054046;28;789;-54
2021/12/22 03:39:05;;;;;;;;;;;;;;;12.88;55.50;102280.41;1054140;28;771;-51
2021/12/22 03:39:56;;;;;;;;;;;;;;;12.88;55.51;102279.53;1055122;28;928;-51
2021/12/22 03:40:46;;;;;;;;;;;;;;;12.88;55.58;102280.41;1054911;28;1983;-52
2021/12/22 03:41:37;;;;;;;;;;;;;;;12.86;55.27;102283.16;1054044;28;1049;-55
2021/12/22 03:42:27;;;;;;;;;;;;;;;12.84;55.18;102278.81;1054042;28;859;-53
2021/12/22 03:43:17;;;;;;;;;;;;;;;12.84;55.84;102274.34;1053908;28;738;-52
2021/12/22 03:44:08;;;;;;;;;;;;;;;12.85;54.92;102276.06;1053892;28;927;-54
2021/12/22 03:44:59;;;;;;;;;;;;;;;12.84;55.61;102271.66;1054011;28;681;-52
2021/12/22 03:45:49;;;;;;;;;;;;;;;12.85;56.20;102275.19;1053669;28;2106;-51
2021/12/22 03:46:39;;;;;;;;;;;;;;;12.85;55.05;102273.38;1054451;28;1678;-52
2021/12/22 03:47:30;;;;;;;;;;;;;;;12.85;54.93;102272.53;1051350;28;1899;-49
2021/12/22 03:48:21;;;;;;;;;;;;;;;12.85;55.63;102273.38;1049285;28;1794;-54
2021/12/22 03:49:12;;;;;;;;;;;;;;;12.84;55.02;102268.97;1053990;28;785;-55
2021/12/22 03:50:02;;;;;;;;;;;;;;;12.84;55.02;102274.34;1049840;28;790;-54
2021/12/22 03:50:52;;;;;;;;;;;;;;;12.85;55.47;102270.72;1052425;28;1857;-54
2021/12/22 03:51:43;;;;;;;;;;;;;;;12.83;56.02;102269.06;1054502;28;640;-54
2021/12/22 03:52:33;;;;;;;;;;;;;;;12.83;55.25;102267.25;1054944;28;836;-55
2021/12/22 03:53:24;;;;;;;;;;;;;;;12.83;55.19;102269.94;1049662;28;2178;-51
2021/12/22 03:54:14;;;;;;;;;;;;;;;12.82;55.69;102268.19;1050528;28;752;-56
2021/12/22 03:55:05;;;;;;;;;;;;;;;12.82;55.12;102265.53;1054118;28;840;-56
2021/12/22 03:55:55;;;;;;;;;;;;;;;12.82;55.59;102267.31;1053740;28;2065;-55
2021/12/22 03:56:45;;;;;;;;;;;;;;;12.81;56.08;102266.47;1053915;28;824;-54
2021/12/22 03:57:36;;;;;;;;;;;;;;;12.80;54.97;102259.38;1053723;28;1868;-52
2021/12/22 03:58:26;;;;;;;;;;;;;;;12.80;55.96;102262.06;1053958;28;1938;-54
2021/12/22 03:59:17;;;;;;;;;;;;;;;12.80;54.88;102259.38;1053854;28;747;-54
2021/12/22 04:00:07;;;;;;;;;;;;;;;12.82;55.03;102259.31;1053870;28;1941;-55
2021/12/22 04:00:58;;;;;;;;;;;;;;;12.82;55.49;102261.97;1054540;28;935;-52
2021/12/22 04:01:48;;;;;;;;;;;;;;;12.80;55.71;102256.72;1054568;28;645;-55
2021/12/22 04:02:39;;;;;;;;;;;;;;;12.81;55.42;102268.28;1054503;28;834;-55
2021/12/22 04:03:33;;;;;;;;;;;;;;;12.80;55.36;102263.88;1054526;28;802;-47
2021/12/22 04:04:23;;;;;;;;;;;;;;;12.79;55.12;102268.34;1051026;28;1852;-52
2021/12/22 04:05:14;;;;;;;;;;;;;;;12.79;55.98;102265.66;1049979;28;1087;-52
2021/12/22 04:06:04;;;;;;;;;;;;;;;12.79;55.07;102268.34;1054142;28;1044;-52
2021/12/22 04:06:55;;;;;;;;;;;;;;;12.78;55.17;102263.06;1055060;28;754;-51
2021/12/22 04:07:45;;;;;;;;;;;;;;;12.78;55.54;102260.41;1050769;28;645;-52
2021/12/22 04:08:36;;;;;;;;;;;;;;;12.78;55.45;102260.41;1049900;28;645;-50
2021/12/22 04:09:27;;;;;;;;;;;;;;;12.75;55.61;102264.09;1049789;28;850;-49
2021/12/22 04:10:22;;;;;;;;;;;;;;;12.74;55.42;102256.13;1049614;28;680;-51
2021/12/22 04:11:12;;;;;;;;;;;;;;;12.76;55.50;102255.13;1049794;28;860;-51
2021/12/22 04:12:03;;;;;;;;;;;;;;;12.76;55.33;102256.94;1049732;28;743;-54
2021/12/22 04:12:53;;;;;;;;;;;;;;;12.75;55.47;102250.72;1049808;28;726;-54
2021/12/22 04:13:44;;;;;;;;;;;;;;;12.76;55.24;102252.44;1049712;28;704;-54
2021/12/22 04:14:34;;;;;;;;;;;;;;;12.76;55.25;102252.44;1049763;28;663;-55
2021/12/22 04:15:25;;;;;;;;;;;;;;;12.76;55.10;102251.59;1049442;28;778;-53
2021/12/22 04:16:15;;;;;;;;;;;;;;;12.75;55.71;102256.06;1050632;28;1746;-54
2021/12/22 04:17:05;;;;;;;;;;;;;;;12.75;55.14;102261.41;1054353;28;1816;-56
2021/12/22 04:17:56;;;;;;;;;;;;;;;12.74;54.78;102253.47;1053927;28;648;-55
2021/12/22 04:18:46;;;;;;;;;;;;;;;12.74;55.27;102256.13;1053999;28;707;-54
2021/12/22 04:19:37;;;;;;;;;;;;;;;12.74;55.22;102257.00;1053738;28;801;-51
2021/12/22 04:20:30;;;;;;;;;;;;;;;12.74;56.28;102256.13;1053934;28;790;-54
2021/12/22 04:21:20;;;;;;;;;;;;;;;12.73;54.60;102252.59;1049631;28;962;-55
2021/12/22 04:22:11;;;;;;;;;;;;;;;12.73;55.55;102255.28;1049801;28;704;-53
2021/12/22 04:23:01;;;;;;;;;;;;;;;12.73;54.99;102257.94;1050305;28;1010;-52
2021/12/22 04:23:52;;;;;;;;;;;;;;;12.73;55.41;102251.72;1049674;28;843;-53
2021/12/22 04:24:42;;;;;;;;;;;;;;;12.72;55.53;102258.91;1045297;28;929;-53
2021/12/22 04:25:33;;;;;;;;;;;;;;;12.71;55.73;102249.16;1046176;28;1899;-53
2021/12/22 04:26:23;;;;;;;;;;;;;;;12.71;55.62;102251.84;1052721;28;1976;-51
2021/12/22 04:27:14;;;;;;;;;;;;;;;12.70;55.33;102239.41;1054118;28;1951;-51
2021/12/22 04:28:06;;;;;;;;;;;;;;;12.70;55.20;102247.44;1053781;28;860;-51
2021/12/22 04:28:57;;;;;;;;;;;;;;;12.70;55.81;102247.44;1053801;28;704;-52
2021/12/22 04:29:47;;;;;;;;;;;;;;;12.71;55.53;102242.94;1053266;28;757;-51
2021/12/22 04:30:38;;;;;;;;;;;;;;;12.70;55.63;102250.13;1054278;28;1988;-48
2021/12/22 04:31:28;;;;;;;;;;;;;;;12.69;55.32;102242.16;1054435;28;715;-50
2021/12/22 04:32:18;;;;;;;;;;;;;;;12.68;54.93;102243.97;1054333;28;897;-47
2021/12/22 04:33:09;;;;;;;;;;;;;;;12.69;55.19;102244.84;1054432;28;687;-51
2021/12/22 04:34:01;;;;;;;;;;;;;;;12.69;55.46;102251.06;1054452;28;833;-50
2021/12/22 04:34:51;;;;;;;;;;;;;;;12.67;55.36;102247.59;1050879;28;737;-48
2021/12/22 04:35:42;;;;;;;;;;;;;;;12.67;55.57;102247.59;1049816;28;1854;-49
2021/12/22 04:36:32;;;;;;;;;;;;;;;12.67;55.49;102247.59;1054294;28;814;-47
2021/12/22 04:37:23;;;;;;;;;;;;;;;12.67;55.28;102242.25;1053725;28;796;-48
2021/12/22 04:38:13;;;;;;;;;;;;;;;12.70;54.70;102249.25;1050133;28;765;-51
2021/12/22 04:39:04;;;;;;;;;;;;;;;12.68;54.85;102243.09;1049735;28;827;-52
2021/12/22 04:39:54;;;;;;;;;;;;;;;12.67;55.32;102244.03;1049669;28;606;-53
2021/12/22 04:40:44;;;;;;;;;;;;;;;12.65;55.66;102238.78;1051086;28;1915;-50
2021/12/22 04:41:35;;;;;;;;;;;;;;;12.66;55.33;102245.84;1054349;28;633;-49
2021/12/22 04:42:25;;;;;;;;;;;;;;;12.64;55.86;102237.03;1054275;28;840;-49
2021/12/22 04:43:16;;;;;;;;;;;;;;;12.64;55.73;102245.06;1054363;28;737;-53